Time,TemperatureF,DewpointF,PressureIn,WindDirection,WindDirectionDegrees,WindSpeedMPH,WindSpeedGustMPH,Humidity,HourlyPrecipIn,Conditions,Clouds,dailyrainin,SoftwareType,DateUTC
2013-07-01 00:01:00,62.0,56.0,30.11,NNE,31,0.0,1.0,80,0.00,,,0.00,,2013-07-01 05:01:00,
2013-07-01 00:11:00,61.0,55.0,30.11,NNE,31,0.0,1.0,80,0.00,,,0.00,,2013-07-01 05:11:00,
2013-07-01 00:22:00,61.0,55.0,30.11,NNE,31,0.0,0.0,81,0.00,,,0.00,,2013-07-01 05:22:00,
2013-07-01 00:33:00,61.0,55.0,30.11,NNE,31,0.0,1.0,81,0.00,,,0.00,,2013-07-01 05:33:00,
2013-07-01 00:42:00,61.0,55.0,30.12,NNE,31,1.0,2.0,82,0.00,,,0.00,,2013-07-01 05:42:00,
2013-07-01 00:52:00,61.0,55.0,30.12,NNE,31,0.0,1.0,82,0.00,,,0.00,,2013-07-01 05:52:00,
2013-07-01 01:02:00,61.0,55.0,30.12,NNE,31,0.0,1.0,82,0.00,,,0.00,,2013-07-01 06:02:00,
2013-07-01 01:12:00,61.0,55.0,30.12,NNE,31,0.0,0.0,82,0.00,,,0.00,,2013-07-01 06:12:00,
2013-07-01 01:24:00,60.0,55.0,30.13,NNE,31,0.0,1.0,83,0.00,,,0.00,,2013-07-01 06:24:00,
2013-07-01 01:33:00,60.0,55.0,30.13,NNE,31,0.0,2.0,83,0.00,,,0.00,,2013-07-01 06:33:00,
2013-07-01 01:43:00,60.0,55.0,30.13,NNE,31,0.0,0.0,84,0.00,,,0.00,,2013-07-01 06:43:00,
2013-07-01 01:53:00,60.0,55.0,30.13,NNE,31,0.0,0.0,84,0.00,,,0.00,,2013-07-01 06:53:00,
2013-07-01 02:01:00,59.0,54.0,30.13,NNE,31,0.0,1.0,84,0.00,,,0.00,,2013-07-01 07:01:00,
2013-07-01 02:11:00,59.0,54.0,30.13,NNE,31,0.0,1.0,85,0.00,,,0.00,,2013-07-01 07:11:00,
2013-07-01 02:22:00,58.0,53.0,30.13,NNE,31,0.0,1.0,84,0.00,,,0.00,,2013-07-01 07:22:00,
2013-07-01 02:33:00,58.0,54.0,30.11,NNE,31,0.0,1.0,85,0.00,,,0.00,,2013-07-01 07:33:00,
2013-07-01 02:43:00,58.0,54.0,30.11,NNE,31,0.0,0.0,86,0.00,,,0.00,,2013-07-01 07:43:00,
2013-07-01 02:53:00,57.0,53.0,30.11,NNE,31,0.0,1.0,86,0.00,,,0.00,,2013-07-01 07:53:00,
2013-07-01 03:01:00,57.0,53.0,30.11,NNE,31,0.0,0.0,87,0.00,,,0.00,,2013-07-01 08:01:00,
2013-07-01 03:11:00,57.0,53.0,30.11,NNE,31,0.0,0.0,87,0.00,,,0.00,,2013-07-01 08:11:00,
2013-07-01 03:22:00,57.0,53.0,30.11,NNE,31,0.0,1.0,87,0.00,,,0.00,,2013-07-01 08:22:00,
2013-07-01 03:33:00,57.0,53.0,30.11,NNE,31,0.0,0.0,87,0.00,,,0.00,,2013-07-01 08:33:00,
2013-07-01 03:42:00,57.0,53.0,30.11,NNE,31,0.0,1.0,87,0.00,,,0.00,,2013-07-01 08:42:00,
2013-07-01 03:52:00,57.0,53.0,30.11,NNE,31,0.0,2.0,88,0.00,,,0.00,,2013-07-01 08:52:00,
2013-07-01 04:02:00,57.0,53.0,30.11,NNE,31,0.0,1.0,87,0.00,,,0.00,,2013-07-01 09:02:00,
2013-07-01 04:11:00,57.0,53.0,30.11,NNE,31,0.0,2.0,87,0.00,,,0.00,,2013-07-01 09:11:00,
2013-07-01 04:22:00,56.0,52.0,30.12,NNE,31,0.0,2.0,87,0.00,,,0.00,,2013-07-01 09:22:00,
2013-07-01 04:34:00,56.0,52.0,30.12,NNE,31,1.0,4.0,87,0.00,,,0.00,,2013-07-01 09:34:00,
2013-07-01 04:43:00,56.0,52.0,30.12,NNE,31,1.0,2.0,87,0.00,,,0.00,,2013-07-01 09:43:00,
2013-07-01 04:53:00,56.0,52.0,30.12,NNE,31,0.0,2.0,87,0.00,,,0.00,,2013-07-01 09:53:00,
2013-07-01 05:03:00,56.0,52.0,30.13,NNE,31,0.0,2.0,87,0.00,,,0.00,,2013-07-01 10:03:00,
2013-07-01 05:11:00,56.0,52.0,30.13,NNE,31,0.0,2.0,87,0.00,,,0.00,,2013-07-01 10:11:00,
2013-07-01 05:22:00,56.0,52.0,30.13,NNE,27,1.0,5.0,88,0.00,,,0.00,,2013-07-01 10:22:00,
2013-07-01 05:33:00,56.0,52.0,30.13,NNE,27,0.0,4.0,88,0.00,,,0.00,,2013-07-01 10:33:00,
2013-07-01 05:42:00,56.0,52.0,30.14,North,5,3.0,4.0,88,0.00,,,0.00,,2013-07-01 10:42:00,
2013-07-01 05:52:00,56.0,52.0,30.14,North,355,0.0,4.0,88,0.00,,,0.00,,2013-07-01 10:52:00,
2013-07-01 06:02:00,56.0,53.0,30.14,North,355,0.0,4.0,89,0.00,,,0.00,,2013-07-01 11:02:00,
2013-07-01 06:11:00,56.0,53.0,30.14,North,355,0.0,3.0,89,0.00,,,0.00,,2013-07-01 11:11:00,
2013-07-01 06:22:00,56.0,53.0,30.15,NNW,331,0.0,4.0,89,0.00,,,0.00,,2013-07-01 11:22:00,
2013-07-01 06:33:00,56.0,53.0,30.15,North,5,2.0,5.0,89,0.00,,,0.00,,2013-07-01 11:33:00,
2013-07-01 06:43:00,56.0,53.0,30.15,NNW,338,1.0,7.0,90,0.00,,,0.00,,2013-07-01 11:43:00,
2013-07-01 06:52:00,56.0,53.0,30.15,North,355,4.0,7.0,90,0.00,,,0.00,,2013-07-01 11:52:00,
2013-07-01 07:01:00,56.0,53.0,30.15,NNW,333,1.0,5.0,90,0.00,,,0.00,,2013-07-01 12:01:00,
2013-07-01 07:11:00,56.0,53.0,30.15,NNE,15,1.0,6.0,90,0.00,,,0.00,,2013-07-01 12:11:00,
2013-07-01 07:22:00,56.0,53.0,30.16,NW,325,0.0,5.0,90,0.00,,,0.00,,2013-07-01 12:22:00,
2013-07-01 07:33:00,57.0,54.0,30.16,NNW,345,1.0,4.0,89,0.00,,,0.00,,2013-07-01 12:33:00,
2013-07-01 07:43:00,57.0,54.0,30.16,NNW,336,1.0,5.0,89,0.00,,,0.00,,2013-07-01 12:43:00,
2013-07-01 07:53:00,57.0,53.0,30.16,NNW,346,2.0,5.0,87,0.00,,,0.00,,2013-07-01 12:53:00,
2013-07-01 08:01:00,58.0,54.0,30.16,NNW,348,3.0,5.0,86,0.00,,,0.00,,2013-07-01 13:01:00,
2013-07-01 08:12:00,59.0,55.0,30.16,North,360,1.0,6.0,86,0.00,,,0.00,,2013-07-01 13:12:00,
2013-07-01 08:23:00,60.0,55.0,30.16,North,5,1.0,4.0,84,0.00,,,0.00,,2013-07-01 13:23:00,
2013-07-01 08:33:00,62.0,56.0,30.17,North,355,2.0,5.0,82,0.00,,,0.00,,2013-07-01 13:33:00,
2013-07-01 08:43:00,62.0,57.0,30.17,NNW,346,0.0,5.0,83,0.00,,,0.00,,2013-07-01 13:43:00,
2013-07-01 08:53:00,63.0,57.0,30.17,NNW,342,2.0,4.0,80,0.00,,,0.00,,2013-07-01 13:53:00,
2013-07-01 09:01:00,64.0,57.0,30.17,North,5,0.0,4.0,78,0.00,,,0.00,,2013-07-01 14:01:00,
2013-07-01 09:11:00,65.0,58.0,30.18,North,5,0.0,4.0,79,0.00,,,0.00,,2013-07-01 14:11:00,
2013-07-01 09:22:00,66.0,58.0,30.18,North,355,1.0,4.0,75,0.00,,,0.00,,2013-07-01 14:22:00,
2013-07-01 09:34:00,67.0,58.0,30.18,NNW,347,1.0,4.0,73,0.00,,,0.00,,2013-07-01 14:34:00,
2013-07-01 09:43:00,69.0,60.0,30.18,North,355,0.0,4.0,74,0.00,,,0.00,,2013-07-01 14:43:00,
2013-07-01 09:52:00,70.0,59.0,30.18,North,350,3.0,4.0,68,0.00,,,0.00,,2013-07-01 14:52:00,
2013-07-01 10:02:00,71.0,59.0,30.17,NNW,327,3.0,4.0,66,0.00,,,0.00,,2013-07-01 15:02:00,
2013-07-01 10:11:00,72.0,60.0,30.17,North,10,0.0,4.0,67,0.00,,,0.00,,2013-07-01 15:11:00,
2013-07-01 10:23:00,73.0,60.0,30.17,NNW,346,2.0,5.0,64,0.00,,,0.00,,2013-07-01 15:23:00,
2013-07-01 10:34:00,74.0,62.0,30.17,NNW,340,2.0,5.0,66,0.00,,,0.00,,2013-07-01 15:34:00,
2013-07-01 10:43:00,75.0,60.0,30.17,NNW,340,4.0,6.0,60,0.00,,,0.00,,2013-07-01 15:43:00,
2013-07-01 10:52:00,76.0,60.0,30.17,NE,51,0.0,6.0,58,0.00,,,0.00,,2013-07-01 15:52:00,
2013-07-01 11:01:00,77.0,59.0,30.20,North,11,2.0,5.0,54,0.00,,,0.00,,2013-07-01 16:01:00,
2013-07-01 11:11:00,78.0,60.0,30.20,NNE,28,2.0,5.0,54,0.00,,,0.00,,2013-07-01 16:11:00,
2013-07-01 11:22:00,79.0,60.0,30.19,North,355,1.0,7.0,52,0.00,,,0.00,,2013-07-01 16:22:00,
2013-07-01 11:33:00,79.0,59.0,30.19,NNE,32,2.0,8.0,51,0.00,,,0.00,,2013-07-01 16:33:00,
2013-07-01 11:44:00,79.0,59.0,30.19,NW,316,1.0,6.0,51,0.00,,,0.00,,2013-07-01 16:44:00,
2013-07-01 11:53:00,80.0,58.0,30.19,NNW,344,4.0,6.0,47,0.00,,,0.00,,2013-07-01 16:53:00,
2013-07-01 12:02:00,81.0,60.0,30.19,North,360,0.0,5.0,49,0.00,,,0.00,,2013-07-01 17:02:00,
2013-07-01 12:12:00,81.0,61.0,30.19,East,80,1.0,5.0,50,0.00,,,0.00,,2013-07-01 17:12:00,
2013-07-01 12:23:00,81.0,56.0,30.18,NE,50,1.0,7.0,43,0.00,,,0.00,,2013-07-01 17:23:00,
2013-07-01 12:33:00,82.0,60.0,30.18,NNE,32,1.0,7.0,48,0.00,,,0.00,,2013-07-01 17:33:00,
2013-07-01 12:43:00,82.0,60.0,30.18,NE,52,0.0,7.0,47,0.00,,,0.00,,2013-07-01 17:43:00,
2013-07-01 12:53:00,82.0,59.0,30.18,NNE,31,0.0,5.0,45,0.00,,,0.00,,2013-07-01 17:53:00,
2013-07-01 13:02:00,82.0,58.0,30.18,North,11,0.0,5.0,44,0.00,,,0.00,,2013-07-01 18:02:00,
2013-07-01 13:11:00,83.0,58.0,30.17,NNW,348,4.0,7.0,42,0.00,,,0.00,,2013-07-01 18:11:00,
2013-07-01 13:22:00,83.0,58.0,30.17,North,360,3.0,8.0,42,0.00,,,0.00,,2013-07-01 18:22:00,
2013-07-01 13:33:00,83.0,59.0,30.17,NNE,23,3.0,6.0,44,0.00,,,0.00,,2013-07-01 18:33:00,
2013-07-01 13:43:00,83.0,59.0,30.17,ENE,75,2.0,6.0,44,0.00,,,0.00,,2013-07-01 18:43:00,
2013-07-01 13:52:00,83.0,58.0,30.17,NNE,31,0.0,5.0,43,0.00,,,0.00,,2013-07-01 18:52:00,
2013-07-01 14:01:00,84.0,60.0,30.17,NE,51,1.0,4.0,45,0.00,,,0.00,,2013-07-01 19:01:00,
2013-07-01 14:11:00,84.0,59.0,30.16,ENE,76,1.0,7.0,43,0.00,,,0.00,,2013-07-01 19:11:00,
2013-07-01 14:21:00,84.0,58.0,30.16,ENE,65,0.0,6.0,42,0.00,,,0.00,,2013-07-01 19:21:00,
2013-07-01 14:33:00,84.0,58.0,30.16,ENE,67,2.0,6.0,42,0.00,,,0.00,,2013-07-01 19:33:00,
2013-07-01 14:44:00,85.0,59.0,30.15,ENE,57,0.0,5.0,41,0.00,,,0.00,,2013-07-01 19:44:00,
2013-07-01 14:52:00,84.0,58.0,30.15,ENE,77,0.0,6.0,42,0.00,,,0.00,,2013-07-01 19:52:00,
2013-07-01 15:01:00,84.0,61.0,30.15,NE,41,0.0,6.0,46,0.00,,,0.00,,2013-07-01 20:01:00,
2013-07-01 15:11:00,85.0,59.0,30.14,East,100,2.0,5.0,41,0.00,,,0.00,,2013-07-01 20:11:00,
2013-07-01 15:22:00,84.0,62.0,30.14,NE,44,2.0,4.0,48,0.00,,,0.00,,2013-07-01 20:22:00,
2013-07-01 15:34:00,85.0,61.0,30.14,East,82,1.0,3.0,45,0.00,,,0.00,,2013-07-01 20:34:00,
2013-07-01 15:43:00,85.0,60.0,30.14,ENE,71,0.0,7.0,43,0.00,,,0.00,,2013-07-01 20:43:00,
2013-07-01 15:52:00,85.0,59.0,30.13,East,96,1.0,8.0,41,0.00,,,0.00,,2013-07-01 20:52:00,
2013-07-01 16:01:00,86.0,61.0,30.13,NNE,21,0.0,3.0,43,0.00,,,0.00,,2013-07-01 21:01:00,
2013-07-01 16:11:00,86.0,61.0,30.13,NNW,338,1.0,7.0,43,0.00,,,0.00,,2013-07-01 21:11:00,
2013-07-01 16:24:00,86.0,60.0,30.13,East,86,1.0,5.0,42,0.00,,,0.00,,2013-07-01 21:24:00,
2013-07-01 16:34:00,86.0,61.0,30.12,NNE,17,0.0,6.0,43,0.00,,,0.00,,2013-07-01 21:34:00,
2013-07-01 16:43:00,86.0,60.0,30.12,NE,51,0.0,5.0,41,0.00,,,0.00,,2013-07-01 21:43:00,
2013-07-01 16:53:00,86.0,59.0,30.12,NNE,13,0.0,7.0,40,0.00,,,0.00,,2013-07-01 21:53:00,
2013-07-01 17:01:00,87.0,60.0,30.12,NE,54,0.0,3.0,41,0.00,,,0.00,,2013-07-01 22:01:00,
2013-07-01 17:11:00,86.0,60.0,30.12,East,80,0.0,12.0,41,0.00,,,0.00,,2013-07-01 22:11:00,
2013-07-01 17:23:00,85.0,59.0,30.11,East,81,1.0,4.0,42,0.00,,,0.00,,2013-07-01 22:23:00,
2013-07-01 17:33:00,85.0,58.0,30.11,NNE,24,0.0,6.0,40,0.00,,,0.00,,2013-07-01 22:33:00,
2013-07-01 17:43:00,85.0,57.0,30.11,NE,46,0.0,4.0,38,0.00,,,0.00,,2013-07-01 22:43:00,
2013-07-01 17:53:00,84.0,57.0,30.11,East,98,0.0,2.0,40,0.00,,,0.00,,2013-07-01 22:53:00,
2013-07-01 18:01:00,84.0,60.0,30.11,East,82,0.0,4.0,44,0.00,,,0.00,,2013-07-01 23:01:00,
2013-07-01 18:11:00,84.0,59.0,30.11,East,85,1.0,3.0,43,0.00,,,0.00,,2013-07-01 23:11:00,
2013-07-01 18:22:00,83.0,58.0,30.11,NNE,32,0.0,1.0,42,0.00,,,0.00,,2013-07-01 23:22:00,
2013-07-01 18:33:00,83.0,56.0,30.11,NNE,19,0.0,2.0,40,0.00,,,0.00,,2013-07-01 23:33:00,
2013-07-01 18:44:00,84.0,56.0,30.10,NE,51,0.0,2.0,39,0.00,,,0.00,,2013-07-01 23:44:00,
2013-07-01 18:53:00,84.0,57.0,30.10,North,9,0.0,3.0,40,0.00,,,0.00,,2013-07-01 23:53:00,
2013-07-01 19:01:00,83.0,57.0,30.10,NE,38,0.0,4.0,41,0.00,,,0.00,,2013-07-02 00:01:00,
2013-07-01 19:12:00,83.0,58.0,30.10,ENE,57,0.0,3.0,42,0.00,,,0.00,,2013-07-02 00:12:00,
2013-07-01 19:22:00,83.0,57.0,30.10,NNE,32,0.0,3.0,41,0.00,,,0.00,,2013-07-02 00:22:00,
2013-07-01 19:33:00,82.0,58.0,30.10,East,90,0.0,6.0,44,0.00,,,0.00,,2013-07-02 00:33:00,
2013-07-01 19:43:00,82.0,60.0,30.10,NE,34,0.0,2.0,48,0.00,,,0.00,,2013-07-02 00:43:00,
2013-07-01 19:53:00,82.0,61.0,30.10,NE,43,0.0,0.0,50,0.00,,,0.00,,2013-07-02 00:53:00,
2013-07-01 20:01:00,81.0,60.0,30.10,NE,43,0.0,1.0,49,0.00,,,0.00,,2013-07-02 01:01:00,
2013-07-01 20:11:00,81.0,61.0,30.11,NE,43,0.0,0.0,51,0.00,,,0.00,,2013-07-02 01:11:00,
2013-07-01 20:22:00,81.0,62.0,30.11,NE,43,0.0,0.0,52,0.00,,,0.00,,2013-07-02 01:22:00,
2013-07-01 20:33:00,81.0,62.0,30.11,NE,43,0.0,0.0,53,0.00,,,0.00,,2013-07-02 01:33:00,
2013-07-01 20:43:00,80.0,61.0,30.11,NE,43,0.0,0.0,53,0.00,,,0.00,,2013-07-02 01:43:00,
2013-07-01 20:53:00,78.0,59.0,30.11,NE,43,0.0,0.0,53,0.00,,,0.00,,2013-07-02 01:53:00,
2013-07-01 21:02:00,77.0,60.0,30.11,NE,43,0.0,0.0,55,0.00,,,0.00,,2013-07-02 02:02:00,
2013-07-01 21:11:00,76.0,59.0,30.11,NE,43,0.0,0.0,56,0.00,,,0.00,,2013-07-02 02:11:00,
2013-07-01 21:22:00,74.0,59.0,30.10,NE,43,0.0,0.0,59,0.00,,,0.00,,2013-07-02 02:22:00,
2013-07-01 21:33:00,73.0,59.0,30.10,NE,43,0.0,0.0,62,0.00,,,0.00,,2013-07-02 02:33:00,
2013-07-01 21:43:00,72.0,59.0,30.10,NE,43,0.0,0.0,64,0.00,,,0.00,,2013-07-02 02:43:00,
2013-07-01 21:53:00,71.0,59.0,30.11,NE,43,0.0,0.0,67,0.00,,,0.00,,2013-07-02 02:53:00,
2013-07-01 22:01:00,71.0,61.0,30.11,NE,43,0.0,0.0,71,0.00,,,0.00,,2013-07-02 03:01:00,
2013-07-01 22:12:00,70.0,60.0,30.11,NE,43,0.0,0.0,71,0.00,,,0.00,,2013-07-02 03:12:00,
2013-07-01 22:24:00,70.0,60.0,30.11,NE,43,0.0,0.0,70,0.00,,,0.00,,2013-07-02 03:24:00,
2013-07-01 22:32:00,69.0,60.0,30.11,NE,43,0.0,0.0,73,0.00,,,0.00,,2013-07-02 03:32:00,
2013-07-01 22:43:00,68.0,59.0,30.12,NE,43,0.0,0.0,74,0.00,,,0.00,,2013-07-02 03:43:00,
2013-07-01 22:53:00,67.0,60.0,30.12,NE,43,0.0,0.0,78,0.00,,,0.00,,2013-07-02 03:53:00,
2013-07-01 23:02:00,67.0,60.0,30.12,NE,43,0.0,0.0,77,0.00,,,0.00,,2013-07-02 04:02:00,
2013-07-01 23:11:00,66.0,60.0,30.12,NE,43,0.0,0.0,80,0.00,,,0.00,,2013-07-02 04:11:00,
2013-07-01 23:22:00,66.0,60.0,30.12,NE,43,0.0,0.0,81,0.00,,,0.00,,2013-07-02 04:22:00,
2013-07-01 23:32:00,66.0,60.0,30.12,NE,43,0.0,0.0,81,0.00,,,0.00,,2013-07-02 04:32:00,
2013-07-01 23:42:00,65.0,59.0,30.12,NE,43,0.0,0.0,82,0.00,,,0.00,,2013-07-02 04:42:00,
2013-07-01 23:53:00,65.0,60.0,30.12,NE,43,0.0,0.0,83,0.00,,,0.00,,2013-07-02 04:53:00,